sensor_id;sensor_type;location;lat;lon;timestamp;P1;durP1;ratioP1;P2;durP2;ratioP2
18752;SDS011;9505;50.882;5.350;2023-05-10T00:02:02;64.35;;;15.30;;
18752;SDS011;9505;50.882;5.350;2023-05-10T00:04:28;62.60;;;15.32;;
18752;SDS011;9505;50.882;5.350;2023-05-10T00:06:54;61.90;;;14.05;;
18752;SDS011;9505;50.882;5.350;2023-05-10T00:09:19;68.82;;;15.77;;
18752;SDS011;9505;50.882;5.350;2023-05-10T00:11:45;62.75;;;14.70;;
18752;SDS011;9505;50.882;5.350;2023-05-10T00:14:11;67.05;;;15.60;;
18752;SDS011;9505;50.882;5.350;2023-05-10T00:16:36;65.05;;;14.82;;
18752;SDS011;9505;50.882;5.350;2023-05-10T00:19:02;74.72;;;16.02;;
18752;SDS011;9505;50.882;5.350;2023-05-10T00:21:28;61.72;;;14.85;;
18752;SDS011;9505;50.882;5.350;2023-05-10T00:23:54;54.63;;;13.68;;
18752;SDS011;9505;50.882;5.350;2023-05-10T00:26:19;70.97;;;16.02;;
18752;SDS011;9505;50.882;5.350;2023-05-10T00:28:46;71.25;;;16.23;;
18752;SDS011;9505;50.882;5.350;2023-05-10T00:31:11;72.05;;;15.70;;
18752;SDS011;9505;50.882;5.350;2023-05-10T00:33:37;67.82;;;15.40;;
18752;SDS011;9505;50.882;5.350;2023-05-10T00:36:03;70.38;;;16.17;;
18752;SDS011;9505;50.882;5.350;2023-05-10T00:38:28;68.43;;;16.08;;
18752;SDS011;9505;50.882;5.350;2023-05-10T00:40:54;68.05;;;16.00;;
18752;SDS011;9505;50.882;5.350;2023-05-10T00:43:20;73.85;;;16.33;;
18752;SDS011;9505;50.882;5.350;2023-05-10T00:45:45;60.83;;;14.30;;
18752;SDS011;9505;50.882;5.350;2023-05-10T00:48:11;67.60;;;15.95;;
18752;SDS011;9505;50.882;5.350;2023-05-10T00:50:37;67.55;;;15.23;;
18752;SDS011;9505;50.882;5.350;2023-05-10T00:53:05;70.18;;;16.50;;
18752;SDS011;9505;50.882;5.350;2023-05-10T00:55:32;74.60;;;16.50;;
18752;SDS011;9505;50.882;5.350;2023-05-10T00:57:58;70.93;;;16.35;;
18752;SDS011;9505;50.882;5.350;2023-05-10T01:00:23;76.63;;;16.38;;
18752;SDS011;9505;50.882;5.350;2023-05-10T01:02:50;78.80;;;17.15;;
18752;SDS011;9505;50.882;5.350;2023-05-10T01:05:18;81.88;;;16.77;;
18752;SDS011;9505;50.882;5.350;2023-05-10T01:07:43;79.03;;;16.70;;
18752;SDS011;9505;50.882;5.350;2023-05-10T01:10:09;71.70;;;16.77;;
18752;SDS011;9505;50.882;5.350;2023-05-10T01:12:37;75.30;;;15.82;;
18752;SDS011;9505;50.882;5.350;2023-05-10T01:15:06;71.95;;;17.13;;
18752;SDS011;9505;50.882;5.350;2023-05-10T01:17:32;75.07;;;17.52;;
18752;SDS011;9505;50.882;5.350;2023-05-10T01:20:00;75.47;;;18.33;;
18752;SDS011;9505;50.882;5.350;2023-05-10T01:22:32;78.43;;;17.25;;
18752;SDS011;9505;50.882;5.350;2023-05-10T01:31:12;74.72;;;16.23;;
18752;SDS011;9505;50.882;5.350;2023-05-10T01:33:56;73.93;;;17.25;;
18752;SDS011;9505;50.882;5.350;2023-05-10T01:36:44;75.00;;;16.60;;
18752;SDS011;9505;50.882;5.350;2023-05-10T01:42:10;75.13;;;17.15;;
18752;SDS011;9505;50.882;5.350;2023-05-10T01:47:19;64.07;;;15.93;;
18752;SDS011;9505;50.882;5.350;2023-05-10T01:49:50;83.10;;;17.60;;
18752;SDS011;9505;50.882;5.350;2023-05-10T01:52:19;78.40;;;17.60;;
18752;SDS011;9505;50.882;5.350;2023-05-10T01:54:54;78.90;;;18.48;;
18752;SDS011;9505;50.882;5.350;2023-05-10T01:57:26;82.43;;;17.45;;
18752;SDS011;9505;50.882;5.350;2023-05-10T01:59:57;75.90;;;17.25;;
18752;SDS011;9505;50.882;5.350;2023-05-10T02:02:25;74.10;;;17.73;;
18752;SDS011;9505;50.882;5.350;2023-05-10T02:04:53;72.53;;;17.20;;
18752;SDS011;9505;50.882;5.350;2023-05-10T02:07:20;75.80;;;17.60;;
18752;SDS011;9505;50.882;5.350;2023-05-10T02:09:48;67.47;;;15.75;;
18752;SDS011;9505;50.882;5.350;2023-05-10T02:12:14;76.18;;;16.63;;
18752;SDS011;9505;50.882;5.350;2023-05-10T02:14:41;75.07;;;15.38;;
18752;SDS011;9505;50.882;5.350;2023-05-10T02:17:08;66.15;;;16.85;;
18752;SDS011;9505;50.882;5.350;2023-05-10T02:19:35;81.57;;;17.63;;
18752;SDS011;9505;50.882;5.350;2023-05-10T02:22:03;72.00;;;16.88;;
18752;SDS011;9505;50.882;5.350;2023-05-10T02:24:30;80.18;;;17.63;;
18752;SDS011;9505;50.882;5.350;2023-05-10T02:26:57;73.07;;;17.63;;
18752;SDS011;9505;50.882;5.350;2023-05-10T02:29:24;67.55;;;15.73;;
18752;SDS011;9505;50.882;5.350;2023-05-10T02:31:52;85.60;;;16.02;;
18752;SDS011;9505;50.882;5.350;2023-05-10T02:34:24;67.03;;;15.90;;
18752;SDS011;9505;50.882;5.350;2023-05-10T02:36:52;79.88;;;17.80;;
18752;SDS011;9505;50.882;5.350;2023-05-10T02:39:19;66.70;;;16.70;;
18752;SDS011;9505;50.882;5.350;2023-05-10T02:41:45;79.82;;;16.45;;
18752;SDS011;9505;50.882;5.350;2023-05-10T02:44:12;70.57;;;17.73;;
18752;SDS011;9505;50.882;5.350;2023-05-10T02:46:40;85.30;;;18.55;;
18752;SDS011;9505;50.882;5.350;2023-05-10T02:49:06;84.75;;;18.80;;
18752;SDS011;9505;50.882;5.350;2023-05-10T02:51:34;78.53;;;17.27;;
18752;SDS011;9505;50.882;5.350;2023-05-10T02:54:04;87.88;;;19.08;;
18752;SDS011;9505;50.882;5.350;2023-05-10T02:56:36;76.00;;;16.98;;
18752;SDS011;9505;50.882;5.350;2023-05-10T02:59:05;93.20;;;19.02;;
18752;SDS011;9505;50.882;5.350;2023-05-10T03:01:31;86.93;;;19.55;;
18752;SDS011;9505;50.882;5.350;2023-05-10T03:03:57;82.95;;;18.85;;
18752;SDS011;9505;50.882;5.350;2023-05-10T03:06:22;79.47;;;17.80;;
18752;SDS011;9505;50.882;5.350;2023-05-10T03:08:48;78.57;;;16.90;;
18752;SDS011;9505;50.882;5.350;2023-05-10T03:11:28;77.53;;;17.30;;
18752;SDS011;9505;50.882;5.350;2023-05-10T03:16:56;83.13;;;19.05;;
18752;SDS011;9505;50.882;5.350;2023-05-10T03:19:32;85.75;;;19.88;;
18752;SDS011;9505;50.882;5.350;2023-05-10T03:22:08;89.25;;;18.38;;
18752;SDS011;9505;50.882;5.350;2023-05-10T03:24:37;79.10;;;18.45;;
18752;SDS011;9505;50.882;5.350;2023-05-10T03:27:06;75.75;;;17.88;;
18752;SDS011;9505;50.882;5.350;2023-05-10T03:29:33;98.88;;;20.05;;
18752;SDS011;9505;50.882;5.350;2023-05-10T03:31:59;96.13;;;20.98;;
18752;SDS011;9505;50.882;5.350;2023-05-10T03:34:25;86.22;;;19.10;;
18752;SDS011;9505;50.882;5.350;2023-05-10T03:36:51;93.38;;;20.17;;
18752;SDS011;9505;50.882;5.350;2023-05-10T03:39:17;81.65;;;19.30;;
18752;SDS011;9505;50.882;5.350;2023-05-10T03:41:42;76.22;;;18.95;;
18752;SDS011;9505;50.882;5.350;2023-05-10T03:44:08;90.20;;;19.27;;
18752;SDS011;9505;50.882;5.350;2023-05-10T03:46:34;89.38;;;19.42;;
18752;SDS011;9505;50.882;5.350;2023-05-10T03:48:59;107.07;;;20.98;;
18752;SDS011;9505;50.882;5.350;2023-05-10T03:51:25;80.57;;;19.15;;
18752;SDS011;9505;50.882;5.350;2023-05-10T03:53:53;68.38;;;17.20;;
18752;SDS011;9505;50.882;5.350;2023-05-10T03:56:20;86.90;;;20.75;;
18752;SDS011;9505;50.882;5.350;2023-05-10T03:58:46;87.60;;;20.50;;
18752;SDS011;9505;50.882;5.350;2023-05-10T04:01:11;72.97;;;17.65;;
18752;SDS011;9505;50.882;5.350;2023-05-10T04:03:37;89.70;;;19.30;;
18752;SDS011;9505;50.882;5.350;2023-05-10T04:06:03;93.00;;;20.75;;
18752;SDS011;9505;50.882;5.350;2023-05-10T04:08:29;79.68;;;19.35;;
18752;SDS011;9505;50.882;5.350;2023-05-10T04:11:04;80.38;;;18.30;;
18752;SDS011;9505;50.882;5.350;2023-05-10T04:13:34;74.43;;;18.50;;
18752;SDS011;9505;50.882;5.350;2023-05-10T04:15:59;88.55;;;19.50;;
18752;SDS011;9505;50.882;5.350;2023-05-10T04:18:25;79.43;;;18.83;;
18752;SDS011;9505;50.882;5.350;2023-05-10T04:20:51;83.45;;;17.77;;
18752;SDS011;9505;50.882;5.350;2023-05-10T04:23:16;90.25;;;19.83;;
18752;SDS011;9505;50.882;5.350;2023-05-10T04:25:42;85.35;;;19.30;;
18752;SDS011;9505;50.882;5.350;2023-05-10T04:28:08;90.43;;;18.02;;
18752;SDS011;9505;50.882;5.350;2023-05-10T04:30:34;77.88;;;17.33;;
18752;SDS011;9505;50.882;5.350;2023-05-10T04:33:00;78.53;;;17.73;;
18752;SDS011;9505;50.882;5.350;2023-05-10T04:35:26;67.30;;;16.08;;
18752;SDS011;9505;50.882;5.350;2023-05-10T04:37:53;75.47;;;16.75;;
18752;SDS011;9505;50.882;5.350;2023-05-10T04:40:19;61.30;;;14.63;;
18752;SDS011;9505;50.882;5.350;2023-05-10T04:42:45;69.45;;;15.95;;
18752;SDS011;9505;50.882;5.350;2023-05-10T04:45:11;69.32;;;16.17;;
18752;SDS011;9505;50.882;5.350;2023-05-10T04:47:36;77.57;;;16.73;;
18752;SDS011;9505;50.882;5.350;2023-05-10T04:50:02;77.03;;;17.92;;
18752;SDS011;9505;50.882;5.350;2023-05-10T04:52:29;76.88;;;16.75;;
18752;SDS011;9505;50.882;5.350;2023-05-10T04:54:54;81.35;;;16.55;;
18752;SDS011;9505;50.882;5.350;2023-05-10T04:57:20;76.15;;;16.92;;
18752;SDS011;9505;50.882;5.350;2023-05-10T04:59:46;78.05;;;17.25;;
18752;SDS011;9505;50.882;5.350;2023-05-10T05:02:12;78.32;;;18.10;;
18752;SDS011;9505;50.882;5.350;2023-05-10T05:04:38;78.10;;;17.05;;
18752;SDS011;9505;50.882;5.350;2023-05-10T05:07:03;63.55;;;15.15;;
18752;SDS011;9505;50.882;5.350;2023-05-10T05:09:29;50.50;;;14.38;;
18752;SDS011;9505;50.882;5.350;2023-05-10T05:11:57;72.03;;;15.48;;
18752;SDS011;9505;50.882;5.350;2023-05-10T05:14:23;49.45;;;13.57;;
18752;SDS011;9505;50.882;5.350;2023-05-10T05:16:50;46.50;;;12.65;;
18752;SDS011;9505;50.882;5.350;2023-05-10T05:19:16;49.75;;;13.27;;
18752;SDS011;9505;50.882;5.350;2023-05-10T05:21:42;43.00;;;12.57;;
18752;SDS011;9505;50.882;5.350;2023-05-10T05:24:08;50.22;;;13.48;;
18752;SDS011;9505;50.882;5.350;2023-05-10T05:26:35;49.83;;;13.40;;
18752;SDS011;9505;50.882;5.350;2023-05-10T05:29:01;40.47;;;12.48;;
18752;SDS011;9505;50.882;5.350;2023-05-10T05:31:27;58.50;;;15.80;;
18752;SDS011;9505;50.882;5.350;2023-05-10T05:33:53;69.43;;;17.40;;
18752;SDS011;9505;50.882;5.350;2023-05-10T05:36:19;60.53;;;16.92;;
18752;SDS011;9505;50.882;5.350;2023-05-10T05:38:45;63.13;;;16.85;;
18752;SDS011;9505;50.882;5.350;2023-05-10T05:41:10;76.90;;;18.38;;
18752;SDS011;9505;50.882;5.350;2023-05-10T05:43:36;92.07;;;18.85;;
18752;SDS011;9505;50.882;5.350;2023-05-10T05:46:01;72.15;;;19.55;;
18752;SDS011;9505;50.882;5.350;2023-05-10T05:48:28;81.18;;;18.35;;
18752;SDS011;9505;50.882;5.350;2023-05-10T05:50:55;75.05;;;19.00;;
18752;SDS011;9505;50.882;5.350;2023-05-10T05:53:21;79.45;;;19.02;;
18752;SDS011;9505;50.882;5.350;2023-05-10T05:55:50;76.60;;;18.27;;
18752;SDS011;9505;50.882;5.350;2023-05-10T05:58:21;83.63;;;19.40;;
18752;SDS011;9505;50.882;5.350;2023-05-10T06:00:47;67.55;;;16.83;;
18752;SDS011;9505;50.882;5.350;2023-05-10T06:03:12;79.55;;;19.42;;
18752;SDS011;9505;50.882;5.350;2023-05-10T06:05:38;84.65;;;19.27;;
18752;SDS011;9505;50.882;5.350;2023-05-10T06:08:04;85.18;;;19.25;;
18752;SDS011;9505;50.882;5.350;2023-05-10T06:10:30;95.80;;;20.83;;
18752;SDS011;9505;50.882;5.350;2023-05-10T06:12:56;88.93;;;19.55;;
18752;SDS011;9505;50.882;5.350;2023-05-10T06:15:21;97.22;;;22.20;;
18752;SDS011;9505;50.882;5.350;2023-05-10T06:17:47;96.38;;;20.35;;
18752;SDS011;9505;50.882;5.350;2023-05-10T06:20:14;96.00;;;21.08;;
18752;SDS011;9505;50.882;5.350;2023-05-10T06:22:40;96.25;;;20.83;;
18752;SDS011;9505;50.882;5.350;2023-05-10T06:25:07;92.53;;;20.65;;
18752;SDS011;9505;50.882;5.350;2023-05-10T06:27:33;94.35;;;21.88;;
18752;SDS011;9505;50.882;5.350;2023-05-10T06:29:58;101.15;;;22.08;;
18752;SDS011;9505;50.882;5.350;2023-05-10T06:32:24;109.70;;;22.35;;
18752;SDS011;9505;50.882;5.350;2023-05-10T06:34:50;97.95;;;21.23;;
18752;SDS011;9505;50.882;5.350;2023-05-10T06:37:16;90.93;;;21.85;;
18752;SDS011;9505;50.882;5.350;2023-05-10T06:39:41;100.45;;;20.33;;
18752;SDS011;9505;50.882;5.350;2023-05-10T06:42:07;98.30;;;21.88;;
18752;SDS011;9505;50.882;5.350;2023-05-10T06:44:33;101.85;;;21.55;;
18752;SDS011;9505;50.882;5.350;2023-05-10T06:46:58;113.20;;;22.95;;
18752;SDS011;9505;50.882;5.350;2023-05-10T06:49:24;114.93;;;24.17;;
18752;SDS011;9505;50.882;5.350;2023-05-10T06:51:50;112.28;;;23.50;;
18752;SDS011;9505;50.882;5.350;2023-05-10T06:54:15;109.43;;;23.83;;
18752;SDS011;9505;50.882;5.350;2023-05-10T06:56:41;115.00;;;23.80;;
18752;SDS011;9505;50.882;5.350;2023-05-10T06:59:07;109.15;;;22.20;;
18752;SDS011;9505;50.882;5.350;2023-05-10T07:01:32;114.80;;;23.65;;
18752;SDS011;9505;50.882;5.350;2023-05-10T07:03:58;108.38;;;22.17;;
18752;SDS011;9505;50.882;5.350;2023-05-10T07:06:24;113.03;;;23.27;;
18752;SDS011;9505;50.882;5.350;2023-05-10T07:08:49;124.63;;;24.20;;
18752;SDS011;9505;50.882;5.350;2023-05-10T07:11:15;97.30;;;22.40;;
18752;SDS011;9505;50.882;5.350;2023-05-10T07:13:41;98.25;;;22.27;;
18752;SDS011;9505;50.882;5.350;2023-05-10T07:16:09;98.15;;;22.15;;
18752;SDS011;9505;50.882;5.350;2023-05-10T07:18:35;98.22;;;21.85;;
18752;SDS011;9505;50.882;5.350;2023-05-10T07:21:01;91.47;;;19.85;;
18752;SDS011;9505;50.882;5.350;2023-05-10T07:23:27;101.80;;;21.95;;
18752;SDS011;9505;50.882;5.350;2023-05-10T07:25:52;95.40;;;21.30;;
18752;SDS011;9505;50.882;5.350;2023-05-10T07:28:18;89.72;;;21.38;;
18752;SDS011;9505;50.882;5.350;2023-05-10T07:30:44;81.95;;;20.83;;
18752;SDS011;9505;50.882;5.350;2023-05-10T07:33:11;74.15;;;20.63;;
18752;SDS011;9505;50.882;5.350;2023-05-10T07:35:38;55.00;;;14.55;;
18752;SDS011;9505;50.882;5.350;2023-05-10T07:38:04;43.25;;;10.85;;
18752;SDS011;9505;50.882;5.350;2023-05-10T07:40:29;46.90;;;9.48;;
18752;SDS011;9505;50.882;5.350;2023-05-10T07:42:55;37.03;;;7.80;;
18752;SDS011;9505;50.882;5.350;2023-05-10T07:45:21;32.03;;;6.38;;
18752;SDS011;9505;50.882;5.350;2023-05-10T07:47:47;21.52;;;4.75;;
18752;SDS011;9505;50.882;5.350;2023-05-10T07:50:13;26.95;;;5.43;;
18752;SDS011;9505;50.882;5.350;2023-05-10T07:52:39;39.80;;;6.68;;
18752;SDS011;9505;50.882;5.350;2023-05-10T07:55:05;18.50;;;3.92;;
18752;SDS011;9505;50.882;5.350;2023-05-10T07:57:32;25.73;;;3.85;;
18752;SDS011;9505;50.882;5.350;2023-05-10T07:59:58;23.27;;;3.72;;
18752;SDS011;9505;50.882;5.350;2023-05-10T08:02:24;32.40;;;4.63;;
18752;SDS011;9505;50.882;5.350;2023-05-10T08:04:50;38.47;;;5.32;;
18752;SDS011;9505;50.882;5.350;2023-05-10T08:07:16;19.70;;;3.40;;
18752;SDS011;9505;50.882;5.350;2023-05-10T08:09:42;25.80;;;4.28;;
18752;SDS011;9505;50.882;5.350;2023-05-10T08:12:07;26.40;;;3.78;;
18752;SDS011;9505;50.882;5.350;2023-05-10T08:14:33;37.53;;;6.93;;
18752;SDS011;9505;50.882;5.350;2023-05-10T08:16:59;32.35;;;4.43;;
18752;SDS011;9505;50.882;5.350;2023-05-10T08:19:25;38.53;;;5.07;;
18752;SDS011;9505;50.882;5.350;2023-05-10T08:21:51;32.63;;;4.07;;
18752;SDS011;9505;50.882;5.350;2023-05-10T08:24:18;18.90;;;3.58;;
18752;SDS011;9505;50.882;5.350;2023-05-10T08:26:44;32.28;;;4.70;;
18752;SDS011;9505;50.882;5.350;2023-05-10T08:29:09;34.78;;;4.97;;
18752;SDS011;9505;50.882;5.350;2023-05-10T08:31:35;36.42;;;5.20;;
18752;SDS011;9505;50.882;5.350;2023-05-10T08:34:01;33.10;;;4.55;;
18752;SDS011;9505;50.882;5.350;2023-05-10T08:36:26;24.77;;;4.10;;
18752;SDS011;9505;50.882;5.350;2023-05-10T08:38:53;32.03;;;4.80;;
18752;SDS011;9505;50.882;5.350;2023-05-10T08:41:23;32.05;;;5.15;;
18752;SDS011;9505;50.882;5.350;2023-05-10T08:43:50;29.25;;;4.72;;
18752;SDS011;9505;50.882;5.350;2023-05-10T08:46:17;33.30;;;5.20;;
18752;SDS011;9505;50.882;5.350;2023-05-10T08:48:47;39.25;;;5.60;;
18752;SDS011;9505;50.882;5.350;2023-05-10T08:51:15;34.22;;;6.10;;
18752;SDS011;9505;50.882;5.350;2023-05-10T08:53:44;35.55;;;6.00;;
18752;SDS011;9505;50.882;5.350;2023-05-10T08:56:10;33.55;;;5.53;;
18752;SDS011;9505;50.882;5.350;2023-05-10T08:58:37;46.05;;;7.15;;
18752;SDS011;9505;50.882;5.350;2023-05-10T09:01:03;35.55;;;5.88;;
18752;SDS011;9505;50.882;5.350;2023-05-10T09:03:30;37.42;;;6.18;;
18752;SDS011;9505;50.882;5.350;2023-05-10T09:05:57;34.97;;;5.85;;
18752;SDS011;9505;50.882;5.350;2023-05-10T09:08:23;36.92;;;6.50;;
18752;SDS011;9505;50.882;5.350;2023-05-10T09:10:54;37.03;;;6.82;;
18752;SDS011;9505;50.882;5.350;2023-05-10T09:13:20;34.55;;;6.63;;
18752;SDS011;9505;50.882;5.350;2023-05-10T09:15:47;39.95;;;7.13;;
18752;SDS011;9505;50.882;5.350;2023-05-10T09:18:13;32.20;;;6.03;;
18752;SDS011;9505;50.882;5.350;2023-05-10T09:20:39;45.80;;;7.40;;
18752;SDS011;9505;50.882;5.350;2023-05-10T09:23:05;42.08;;;6.93;;
18752;SDS011;9505;50.882;5.350;2023-05-10T09:25:31;34.78;;;6.00;;
18752;SDS011;9505;50.882;5.350;2023-05-10T09:28:02;31.77;;;6.43;;
18752;SDS011;9505;50.882;5.350;2023-05-10T09:30:31;47.28;;;7.93;;
18752;SDS011;9505;50.882;5.350;2023-05-10T09:32:57;46.60;;;7.43;;
18752;SDS011;9505;50.882;5.350;2023-05-10T09:35:26;40.63;;;7.57;;
18752;SDS011;9505;50.882;5.350;2023-05-10T09:37:53;37.55;;;6.78;;
18752;SDS011;9505;50.882;5.350;2023-05-10T09:40:21;39.53;;;7.07;;
18752;SDS011;9505;50.882;5.350;2023-05-10T09:45:24;34.55;;;7.10;;
18752;SDS011;9505;50.882;5.350;2023-05-10T09:47:52;39.72;;;7.40;;
18752;SDS011;9505;50.882;5.350;2023-05-10T09:50:18;49.25;;;8.88;;
18752;SDS011;9505;50.882;5.350;2023-05-10T09:55:22;43.80;;;8.18;;
18752;SDS011;9505;50.882;5.350;2023-05-10T09:57:49;44.30;;;8.48;;
18752;SDS011;9505;50.882;5.350;2023-05-10T10:00:24;43.78;;;8.77;;
18752;SDS011;9505;50.882;5.350;2023-05-10T10:02:56;42.40;;;9.18;;
18752;SDS011;9505;50.882;5.350;2023-05-10T10:05:33;46.88;;;8.70;;
18752;SDS011;9505;50.882;5.350;2023-05-10T10:08:00;40.75;;;8.40;;
18752;SDS011;9505;50.882;5.350;2023-05-10T10:10:27;46.35;;;9.50;;
18752;SDS011;9505;50.882;5.350;2023-05-10T10:12:54;44.88;;;9.35;;
18752;SDS011;9505;50.882;5.350;2023-05-10T10:15:20;46.28;;;9.35;;
18752;SDS011;9505;50.882;5.350;2023-05-10T10:17:48;57.83;;;10.73;;
18752;SDS011;9505;50.882;5.350;2023-05-10T10:20:14;44.92;;;8.90;;
18752;SDS011;9505;50.882;5.350;2023-05-10T10:22:41;44.50;;;9.48;;
18752;SDS011;9505;50.882;5.350;2023-05-10T10:25:09;46.30;;;9.43;;
18752;SDS011;9505;50.882;5.350;2023-05-10T10:32:47;61.28;;;11.90;;
18752;SDS011;9505;50.882;5.350;2023-05-10T10:35:32;45.00;;;9.77;;
18752;SDS011;9505;50.882;5.350;2023-05-10T10:37:59;47.45;;;10.80;;
18752;SDS011;9505;50.882;5.350;2023-05-10T10:40:29;48.00;;;10.15;;
18752;SDS011;9505;50.882;5.350;2023-05-10T10:42:56;47.30;;;10.15;;
18752;SDS011;9505;50.882;5.350;2023-05-10T10:45:23;40.05;;;9.40;;
18752;SDS011;9505;50.882;5.350;2023-05-10T10:47:54;41.72;;;9.13;;
18752;SDS011;9505;50.882;5.350;2023-05-10T10:50:46;52.42;;;10.98;;
18752;SDS011;9505;50.882;5.350;2023-05-10T10:53:11;39.38;;;8.95;;
18752;SDS011;9505;50.882;5.350;2023-05-10T10:55:47;41.85;;;8.95;;
18752;SDS011;9505;50.882;5.350;2023-05-10T10:58:32;40.45;;;8.05;;
18752;SDS011;9505;50.882;5.350;2023-05-10T11:01:11;28.05;;;7.07;;
18752;SDS011;9505;50.882;5.350;2023-05-10T11:03:41;37.00;;;7.65;;
18752;SDS011;9505;50.882;5.350;2023-05-10T11:06:41;45.65;;;8.88;;
18752;SDS011;9505;50.882;5.350;2023-05-10T11:09:08;35.45;;;8.00;;
18752;SDS011;9505;50.882;5.350;2023-05-10T11:11:37;37.38;;;7.50;;
18752;SDS011;9505;50.882;5.350;2023-05-10T11:14:17;40.72;;;7.47;;
18752;SDS011;9505;50.882;5.350;2023-05-10T11:16:47;44.60;;;8.23;;
18752;SDS011;9505;50.882;5.350;2023-05-10T11:19:13;33.63;;;6.65;;
18752;SDS011;9505;50.882;5.350;2023-05-10T11:21:45;37.45;;;6.82;;
18752;SDS011;9505;50.882;5.350;2023-05-10T11:24:15;29.60;;;6.40;;
18752;SDS011;9505;50.882;5.350;2023-05-10T11:26:42;48.42;;;8.32;;
18752;SDS011;9505;50.882;5.350;2023-05-10T11:29:08;36.92;;;6.43;;
18752;SDS011;9505;50.882;5.350;2023-05-10T11:31:34;26.15;;;6.20;;
18752;SDS011;9505;50.882;5.350;2023-05-10T11:34:06;30.20;;;6.00;;
18752;SDS011;9505;50.882;5.350;2023-05-10T11:36:32;35.13;;;6.85;;
18752;SDS011;9505;50.882;5.350;2023-05-10T11:38:59;26.40;;;5.28;;
18752;SDS011;9505;50.882;5.350;2023-05-10T11:41:26;24.70;;;4.75;;
18752;SDS011;9505;50.882;5.350;2023-05-10T11:43:53;40.60;;;6.78;;
18752;SDS011;9505;50.882;5.350;2023-05-10T11:46:20;31.20;;;5.57;;
18752;SDS011;9505;50.882;5.350;2023-05-10T11:48:51;26.90;;;5.63;;
18752;SDS011;9505;50.882;5.350;2023-05-10T11:51:22;36.95;;;6.15;;
18752;SDS011;9505;50.882;5.350;2023-05-10T11:53:50;24.52;;;4.90;;
18752;SDS011;9505;50.882;5.350;2023-05-10T11:56:17;27.08;;;5.30;;
18752;SDS011;9505;50.882;5.350;2023-05-10T11:58:43;17.52;;;4.22;;
18752;SDS011;9505;50.882;5.350;2023-05-10T12:01:09;23.55;;;4.75;;
18752;SDS011;9505;50.882;5.350;2023-05-10T12:03:35;34.10;;;5.65;;
18752;SDS011;9505;50.882;5.350;2023-05-10T12:06:02;18.02;;;3.90;;
18752;SDS011;9505;50.882;5.350;2023-05-10T12:08:28;24.65;;;4.72;;
18752;SDS011;9505;50.882;5.350;2023-05-10T12:11:08;20.90;;;4.55;;
18752;SDS011;9505;50.882;5.350;2023-05-10T12:13:39;31.63;;;5.32;;
18752;SDS011;9505;50.882;5.350;2023-05-10T12:16:19;22.23;;;4.43;;
18752;SDS011;9505;50.882;5.350;2023-05-10T12:18:49;30.23;;;4.80;;
18752;SDS011;9505;50.882;5.350;2023-05-10T12:21:16;32.72;;;5.53;;
18752;SDS011;9505;50.882;5.350;2023-05-10T12:23:43;30.42;;;5.13;;
18752;SDS011;9505;50.882;5.350;2023-05-10T12:26:11;34.35;;;5.28;;
18752;SDS011;9505;50.882;5.350;2023-05-10T12:28:37;31.88;;;5.50;;
18752;SDS011;9505;50.882;5.350;2023-05-10T12:31:04;20.60;;;4.07;;
18752;SDS011;9505;50.882;5.350;2023-05-10T12:33:38;36.30;;;5.65;;
18752;SDS011;9505;50.882;5.350;2023-05-10T12:36:06;35.58;;;6.00;;
18752;SDS011;9505;50.882;5.350;2023-05-10T12:40:59;33.70;;;5.03;;
18752;SDS011;9505;50.882;5.350;2023-05-10T12:43:26;34.33;;;5.13;;
18752;SDS011;9505;50.882;5.350;2023-05-10T12:45:52;15.60;;;2.97;;
18752;SDS011;9505;50.882;5.350;2023-05-10T12:48:18;30.52;;;4.65;;
18752;SDS011;9505;50.882;5.350;2023-05-10T12:50:44;20.42;;;3.75;;
18752;SDS011;9505;50.882;5.350;2023-05-10T12:53:10;21.35;;;3.85;;
18752;SDS011;9505;50.882;5.350;2023-05-10T12:55:38;22.92;;;3.70;;
18752;SDS011;9505;50.882;5.350;2023-05-10T12:58:04;32.28;;;4.60;;
18752;SDS011;9505;50.882;5.350;2023-05-10T13:00:30;25.38;;;3.67;;
18752;SDS011;9505;50.882;5.350;2023-05-10T13:02:56;24.10;;;3.90;;
18752;SDS011;9505;50.882;5.350;2023-05-10T13:05:21;16.23;;;3.03;;
18752;SDS011;9505;50.882;5.350;2023-05-10T13:07:47;11.52;;;2.65;;
18752;SDS011;9505;50.882;5.350;2023-05-10T13:10:13;13.52;;;3.08;;
18752;SDS011;9505;50.882;5.350;2023-05-10T13:12:39;21.50;;;4.22;;
18752;SDS011;9505;50.882;5.350;2023-05-10T13:15:04;20.38;;;3.72;;
18752;SDS011;9505;50.882;5.350;2023-05-10T13:17:31;20.85;;;4.20;;
18752;SDS011;9505;50.882;5.350;2023-05-10T13:19:57;60.55;;;8.63;;
18752;SDS011;9505;50.882;5.350;2023-05-10T13:22:22;29.65;;;5.03;;
18752;SDS011;9505;50.882;5.350;2023-05-10T13:24:48;29.27;;;5.10;;
18752;SDS011;9505;50.882;5.350;2023-05-10T13:27:14;47.38;;;6.68;;
18752;SDS011;9505;50.882;5.350;2023-05-10T13:29:39;51.70;;;7.25;;
18752;SDS011;9505;50.882;5.350;2023-05-10T13:32:05;17.70;;;3.42;;
18752;SDS011;9505;50.882;5.350;2023-05-10T13:34:31;19.23;;;3.30;;
18752;SDS011;9505;50.882;5.350;2023-05-10T13:36:56;39.10;;;5.63;;
18752;SDS011;9505;50.882;5.350;2023-05-10T13:39:22;54.55;;;6.95;;
18752;SDS011;9505;50.882;5.350;2023-05-10T13:41:48;25.45;;;3.97;;
18752;SDS011;9505;50.882;5.350;2023-05-10T13:44:14;13.30;;;2.80;;
18752;SDS011;9505;50.882;5.350;2023-05-10T13:46:42;52.75;;;6.55;;
18752;SDS011;9505;50.882;5.350;2023-05-10T13:49:08;53.08;;;6.88;;
18752;SDS011;9505;50.882;5.350;2023-05-10T13:51:34;45.88;;;5.90;;
18752;SDS011;9505;50.882;5.350;2023-05-10T13:54:00;14.88;;;2.72;;
18752;SDS011;9505;50.882;5.350;2023-05-10T13:56:27;20.20;;;3.53;;
18752;SDS011;9505;50.882;5.350;2023-05-10T13:58:52;48.05;;;6.30;;
18752;SDS011;9505;50.882;5.350;2023-05-10T14:01:18;43.45;;;6.13;;
18752;SDS011;9505;50.882;5.350;2023-05-10T14:03:44;15.52;;;2.63;;
18752;SDS011;9505;50.882;5.350;2023-05-10T14:06:09;23.70;;;3.78;;
18752;SDS011;9505;50.882;5.350;2023-05-10T14:08:35;58.22;;;7.45;;
18752;SDS011;9505;50.882;5.350;2023-05-10T14:11:01;38.75;;;5.43;;
18752;SDS011;9505;50.882;5.350;2023-05-10T14:13:27;50.90;;;6.55;;
18752;SDS011;9505;50.882;5.350;2023-05-10T14:15:53;18.25;;;2.83;;
18752;SDS011;9505;50.882;5.350;2023-05-10T14:18:20;55.03;;;6.78;;
18752;SDS011;9505;50.882;5.350;2023-05-10T14:20:46;60.92;;;7.40;;
18752;SDS011;9505;50.882;5.350;2023-05-10T14:23:12;15.02;;;2.80;;
18752;SDS011;9505;50.882;5.350;2023-05-10T14:25:39;22.35;;;3.28;;
18752;SDS011;9505;50.882;5.350;2023-05-10T14:28:05;46.28;;;6.03;;
18752;SDS011;9505;50.882;5.350;2023-05-10T14:30:31;52.58;;;6.93;;
18752;SDS011;9505;50.882;5.350;2023-05-10T14:32:57;20.67;;;3.15;;
18752;SDS011;9505;50.882;5.350;2023-05-10T14:35:23;18.20;;;3.10;;
18752;SDS011;9505;50.882;5.350;2023-05-10T14:37:49;39.78;;;5.53;;
18752;SDS011;9505;50.882;5.350;2023-05-10T14:40:15;41.72;;;6.10;;
18752;SDS011;9505;50.882;5.350;2023-05-10T14:42:42;45.75;;;6.13;;
18752;SDS011;9505;50.882;5.350;2023-05-10T14:45:08;15.20;;;2.95;;
18752;SDS011;9505;50.882;5.350;2023-05-10T14:47:35;21.17;;;3.15;;
18752;SDS011;9505;50.882;5.350;2023-05-10T14:50:00;45.83;;;6.32;;
18752;SDS011;9505;50.882;5.350;2023-05-10T14:52:26;51.35;;;6.22;;
18752;SDS011;9505;50.882;5.350;2023-05-10T14:54:52;27.08;;;3.78;;
18752;SDS011;9505;50.882;5.350;2023-05-10T14:57:18;14.05;;;2.42;;
18752;SDS011;9505;50.882;5.350;2023-05-10T14:59:44;45.10;;;6.13;;
18752;SDS011;9505;50.882;5.350;2023-05-10T15:02:10;45.75;;;6.05;;
18752;SDS011;9505;50.882;5.350;2023-05-10T15:04:36;23.38;;;3.60;;
18752;SDS011;9505;50.882;5.350;2023-05-10T15:07:02;17.92;;;2.67;;
18752;SDS011;9505;50.882;5.350;2023-05-10T15:09:28;47.90;;;6.18;;